createdAt,value
2023-05-24T00:00:23.811Z,17.15
2023-05-24T00:02:51.393Z,17.13
2023-05-24T00:05:19.375Z,17.04
2023-05-24T00:07:46.652Z,17.06
2023-05-24T00:10:14.089Z,17.07
2023-05-24T00:12:41.365Z,16.94
2023-05-24T00:15:09.514Z,16.94
2023-05-24T00:17:41.574Z,16.86
2023-05-24T00:20:11.425Z,16.86
2023-05-24T00:22:38.956Z,16.69
2023-05-24T00:25:07.294Z,16.75
2023-05-24T00:27:37.053Z,16.72
2023-05-24T00:30:05.045Z,16.75
2023-05-24T00:32:32.482Z,16.69
2023-05-24T00:35:01.319Z,16.67
2023-05-24T00:37:29.646Z,16.83
2023-05-24T00:39:57.211Z,16.80
2023-05-24T00:42:24.663Z,16.77
2023-05-24T00:44:51.928Z,16.72
2023-05-24T00:47:19.257Z,16.73
2023-05-24T00:49:47.030Z,16.66
2023-05-24T00:52:16.803Z,16.73
2023-05-24T00:54:44.325Z,16.76
2023-05-24T00:57:14.338Z,16.66
2023-05-24T00:59:43.007Z,16.62
2023-05-24T01:02:10.375Z,16.81
2023-05-24T01:04:38.165Z,16.67
2023-05-24T01:07:14.783Z,16.65
2023-05-24T01:09:55.524Z,16.60
2023-05-24T01:12:32.152Z,16.59
2023-05-24T01:15:10.584Z,16.60
2023-05-24T01:17:48.867Z,16.70
2023-05-24T01:20:18.293Z,16.69
2023-05-24T01:23:08.325Z,16.79
2023-05-24T01:25:49.625Z,16.67
2023-05-24T01:28:19.320Z,16.58
2023-05-24T01:30:47.056Z,16.75
2023-05-24T01:33:14.723Z,16.52
2023-05-24T01:35:42.872Z,16.66
2023-05-24T01:38:13.285Z,16.65
2023-05-24T01:40:41.762Z,16.62
2023-05-24T01:43:16.016Z,16.62
2023-05-24T01:45:53.771Z,16.49
2023-05-24T01:48:31.925Z,16.55
2023-05-24T01:51:00.714Z,16.49
2023-05-24T01:53:34.347Z,16.41
2023-05-24T01:56:03.206Z,16.29
2023-05-24T01:58:32.305Z,16.33
2023-05-24T02:01:01.901Z,16.20
2023-05-24T02:03:29.365Z,16.12
2023-05-24T02:05:56.731Z,16.04
2023-05-24T02:08:24.019Z,16.02
2023-05-24T02:10:51.345Z,15.96
2023-05-24T02:13:20.020Z,15.87
2023-05-24T02:15:48.065Z,15.91
2023-05-24T02:18:18.859Z,15.87
2023-05-24T02:20:47.278Z,15.79
2023-05-24T02:23:14.755Z,15.69
2023-05-24T02:25:41.967Z,15.66
2023-05-24T02:28:09.282Z,15.62
2023-05-24T02:30:36.759Z,15.62
2023-05-24T02:33:04.223Z,15.60
2023-05-24T02:35:33.645Z,15.64
2023-05-24T02:38:01.752Z,15.54
2023-05-24T02:40:28.935Z,15.62
2023-05-24T02:42:56.390Z,15.67
2023-05-24T02:45:24.399Z,15.62
2023-05-24T02:47:51.704Z,15.70
2023-05-24T02:50:19.112Z,15.77
2023-05-24T02:52:47.741Z,15.79
2023-05-24T02:55:14.955Z,15.80
2023-05-24T02:57:42.618Z,15.89
2023-05-24T03:00:11.731Z,15.90
2023-05-24T03:02:41.259Z,15.83
2023-05-24T03:05:09.140Z,15.87
2023-05-24T03:07:36.632Z,15.91
2023-05-24T03:10:06.541Z,15.90
2023-05-24T03:12:33.775Z,15.90
2023-05-24T03:15:01.117Z,15.94
2023-05-24T03:17:28.688Z,15.93
2023-05-24T03:19:56.097Z,15.89
2023-05-24T03:22:23.461Z,15.90
2023-05-24T03:24:51.028Z,15.86
2023-05-24T03:27:20.080Z,15.83
2023-05-24T03:29:47.294Z,15.83
2023-05-24T03:32:14.842Z,15.84
2023-05-24T03:34:42.008Z,15.89
2023-05-24T03:37:09.258Z,15.83
2023-05-24T03:39:36.594Z,15.84
2023-05-24T03:42:04.192Z,15.87
2023-05-24T03:44:32.915Z,15.84
2023-05-24T03:47:00.257Z,15.87
2023-05-24T03:49:27.480Z,15.90
2023-05-24T03:51:54.922Z,15.89
2023-05-24T03:54:22.219Z,15.87
2023-05-24T03:56:50.055Z,15.94
2023-05-24T03:59:17.348Z,15.90
2023-05-24T04:01:46.113Z,15.90
2023-05-24T04:04:13.607Z,15.94
2023-05-24T04:06:42.126Z,15.98
2023-05-24T04:09:10.275Z,15.96
2023-05-24T04:11:37.510Z,16.01
2023-05-24T04:14:05.010Z,16.07
2023-05-24T04:16:34.518Z,16.04
2023-05-24T04:19:04.304Z,15.98
2023-05-24T04:21:33.636Z,15.96
2023-05-24T04:24:01.840Z,16.01
2023-05-24T04:26:30.007Z,15.93
2023-05-24T04:28:57.429Z,16.00
2023-05-24T04:31:26.354Z,16.04
2023-05-24T04:33:53.705Z,16.02
2023-05-24T04:36:24.082Z,15.97
2023-05-24T04:38:53.832Z,16.11
2023-05-24T04:41:22.575Z,16.10
2023-05-24T04:43:50.738Z,16.15
2023-05-24T04:46:18.071Z,16.15
2023-05-24T04:48:45.607Z,16.22
2023-05-24T04:51:13.010Z,16.31
2023-05-24T04:53:41.799Z,16.39
2023-05-24T04:56:09.374Z,16.38
2023-05-24T04:58:38.775Z,16.45
2023-05-24T05:01:06.675Z,16.49
2023-05-24T05:03:34.115Z,16.51
2023-05-24T05:06:01.447Z,16.59
2023-05-24T05:08:29.255Z,16.56
2023-05-24T05:10:57.942Z,16.60
2023-05-24T05:13:25.292Z,16.66
2023-05-24T05:15:52.800Z,16.80
2023-05-24T05:18:20.462Z,16.80
2023-05-24T05:20:47.945Z,16.93
2023-05-24T05:23:15.375Z,16.94
2023-05-24T05:25:42.701Z,17.15
2023-05-24T05:28:11.488Z,17.18
2023-05-24T05:30:38.718Z,17.25
2023-05-24T05:33:06.355Z,17.24
2023-05-24T05:35:33.710Z,17.31
2023-05-24T05:38:01.632Z,17.42
2023-05-24T05:40:29.169Z,17.31
2023-05-24T05:42:56.464Z,17.42
2023-05-24T05:45:25.338Z,17.42
2023-05-24T05:47:52.880Z,17.61
2023-05-24T05:50:20.612Z,17.72
2023-05-24T05:52:48.077Z,17.79
2023-05-24T05:55:15.476Z,17.72
2023-05-24T05:57:43.318Z,17.83
2023-05-24T06:00:11.602Z,17.89
2023-05-24T06:02:40.551Z,17.83
2023-05-24T06:05:08.881Z,17.79
2023-05-24T06:07:38.812Z,17.75
2023-05-24T06:10:07.807Z,17.85
2023-05-24T06:12:35.309Z,18.03
2023-05-24T06:15:02.694Z,18.01
2023-05-24T06:17:30.432Z,18.09
2023-05-24T06:19:59.745Z,18.23
2023-05-24T06:22:30.555Z,18.33
2023-05-24T06:24:58.453Z,18.30
2023-05-24T06:27:25.960Z,18.13
2023-05-24T06:29:53.210Z,18.27
2023-05-24T06:32:20.483Z,18.33
2023-05-24T06:34:48.273Z,18.37
2023-05-24T06:37:16.991Z,18.58
2023-05-24T06:39:44.233Z,18.52
2023-05-24T06:42:11.583Z,18.30
2023-05-24T06:44:39.010Z,18.30
2023-05-24T06:47:07.000Z,18.13
2023-05-24T06:49:44.210Z,17.99
2023-05-24T06:52:11.791Z,18.10
2023-05-24T06:54:41.205Z,18.20
2023-05-24T06:57:09.238Z,18.18
2023-05-24T06:59:36.533Z,18.13
2023-05-24T07:02:32.366Z,18.17
2023-05-24T07:05:06.623Z,17.93
2023-05-24T07:07:33.986Z,17.96
2023-05-24T07:10:03.132Z,17.97
2023-05-24T07:12:30.703Z,18.06
2023-05-24T07:14:57.958Z,18.04
2023-05-24T07:17:25.411Z,18.06
2023-05-24T07:19:52.776Z,18.07
2023-05-24T07:22:20.218Z,18.14
2023-05-24T07:24:47.754Z,18.07
2023-05-24T07:27:16.745Z,18.26
2023-05-24T07:29:46.932Z,18.34
2023-05-24T07:32:15.621Z,18.47
2023-05-24T07:34:43.712Z,18.55
2023-05-24T07:37:11.126Z,18.68
2023-05-24T07:39:39.285Z,18.78
2023-05-24T07:42:07.021Z,18.89
2023-05-24T07:44:36.252Z,19.10
2023-05-24T07:47:03.971Z,19.12
2023-05-24T07:49:31.323Z,19.23
2023-05-24T07:51:59.753Z,19.30
2023-05-24T07:54:27.326Z,19.38
2023-05-24T07:56:54.587Z,19.50
2023-05-24T07:59:23.209Z,19.62
2023-05-24T08:01:52.771Z,19.72
2023-05-24T08:04:20.115Z,19.79
2023-05-24T08:06:48.790Z,19.78
2023-05-24T08:09:16.839Z,19.81
2023-05-24T08:11:44.127Z,20.04
2023-05-24T08:14:13.124Z,20.12
2023-05-24T08:16:40.403Z,20.09
2023-05-24T08:19:09.652Z,20.13
2023-05-24T08:21:37.871Z,19.91
2023-05-24T08:24:08.412Z,20.09
2023-05-24T08:26:36.719Z,20.36
2023-05-24T08:29:05.167Z,20.40
2023-05-24T08:31:34.679Z,20.25
2023-05-24T08:34:02.822Z,20.18
2023-05-24T08:36:31.708Z,20.33
2023-05-24T08:39:03.855Z,20.65
2023-05-24T08:42:00.969Z,20.46
2023-05-24T08:44:42.106Z,20.85
2023-05-24T08:47:10.048Z,20.74
2023-05-24T08:49:38.347Z,20.47
2023-05-24T08:52:12.337Z,20.73
2023-05-24T08:54:41.040Z,20.78
2023-05-24T08:57:08.798Z,21.35
2023-05-24T08:59:36.263Z,21.84
2023-05-24T09:02:05.120Z,21.88
2023-05-24T09:04:36.465Z,22.29
2023-05-24T09:07:04.120Z,22.39
2023-05-24T09:09:35.352Z,22.38
2023-05-24T09:12:05.298Z,22.11
2023-05-24T09:14:32.924Z,21.83
2023-05-24T09:17:01.072Z,21.50
2023-05-24T09:19:31.199Z,21.63
2023-05-24T09:21:59.497Z,21.54
2023-05-24T09:24:27.031Z,21.70
2023-05-24T09:27:17.346Z,21.54
2023-05-24T09:29:49.216Z,21.43
2023-05-24T09:32:16.773Z,21.69
2023-05-24T09:34:47.842Z,21.71
2023-05-24T09:37:16.967Z,21.83
2023-05-24T09:39:44.683Z,21.81
2023-05-24T09:42:18.877Z,22.01
2023-05-24T09:44:47.424Z,21.94
2023-05-24T09:47:15.502Z,21.88
2023-05-24T09:49:43.891Z,22.02
2023-05-24T09:52:14.426Z,21.80
2023-05-24T09:54:43.589Z,21.73
2023-05-24T09:57:11.450Z,21.74
2023-05-24T09:59:43.030Z,22.07
2023-05-24T10:02:11.195Z,22.08
2023-05-24T10:04:39.397Z,22.24
2023-05-24T10:07:06.995Z,22.38
2023-05-24T10:09:35.100Z,22.55
2023-05-24T10:12:04.955Z,22.87
2023-05-24T10:14:33.926Z,22.70
2023-05-24T10:17:04.127Z,22.96
2023-05-24T10:19:35.026Z,22.67
2023-05-24T10:22:07.693Z,22.82
2023-05-24T10:24:39.258Z,22.66
2023-05-24T10:27:09.989Z,22.63
2023-05-24T10:29:48.923Z,22.67
2023-05-24T10:32:19.557Z,22.86
2023-05-24T10:34:50.390Z,23.28
2023-05-24T10:37:18.112Z,23.10
2023-05-24T10:39:45.736Z,23.39
2023-05-24T10:42:13.792Z,23.32
2023-05-24T10:44:41.399Z,23.11
2023-05-24T10:47:14.910Z,23.11
2023-05-24T10:49:52.001Z,23.38
2023-05-24T10:52:21.249Z,23.54
2023-05-24T10:55:10.757Z,23.86
2023-05-24T10:57:41.815Z,24.48
2023-05-24T11:00:35.775Z,24.21
2023-05-24T11:03:06.856Z,23.65
2023-05-24T11:05:51.984Z,23.12
2023-05-24T11:08:26.251Z,22.86
2023-05-24T11:11:19.090Z,22.72
2023-05-24T11:14:01.475Z,22.57
2023-05-24T11:16:39.742Z,22.63
2023-05-24T11:19:18.149Z,22.90
2023-05-24T11:21:59.181Z,23.34
2023-05-24T11:24:28.041Z,24.07
2023-05-24T11:26:55.455Z,24.41
2023-05-24T11:29:23.362Z,24.78
2023-05-24T11:31:52.799Z,24.37
2023-05-24T11:34:20.501Z,24.72
2023-05-24T11:36:48.880Z,25.38
2023-05-24T11:39:18.200Z,25.81
2023-05-24T11:41:45.699Z,26.23
2023-05-24T11:44:16.783Z,26.37
2023-05-24T11:46:44.356Z,26.54
2023-05-24T11:49:14.435Z,26.80
2023-05-24T11:51:42.085Z,26.35
2023-05-24T11:54:09.370Z,26.44
2023-05-24T11:56:38.111Z,27.15
2023-05-24T11:59:15.962Z,27.31
2023-05-24T12:01:43.929Z,27.63
2023-05-24T12:04:12.222Z,28.07
2023-05-24T12:06:41.274Z,27.53
2023-05-24T12:09:11.048Z,28.83
2023-05-24T12:11:44.728Z,28.18
2023-05-24T12:14:13.394Z,27.49
2023-05-24T12:16:42.701Z,27.94
2023-05-24T12:19:31.580Z,26.76
2023-05-24T12:22:00.687Z,26.50
2023-05-24T12:24:28.667Z,26.80
2023-05-24T12:27:06.935Z,26.21
2023-05-24T12:29:35.471Z,26.87
2023-05-24T12:32:03.151Z,26.60
2023-05-24T12:34:30.618Z,26.83
2023-05-24T12:36:57.957Z,26.61
2023-05-24T12:39:32.419Z,27.12
2023-05-24T12:42:04.335Z,26.98
2023-05-24T12:44:34.097Z,26.86
2023-05-24T12:47:03.588Z,26.87
2023-05-24T12:49:32.132Z,26.30
2023-05-24T12:51:59.775Z,25.92
2023-05-24T12:54:28.195Z,26.06
2023-05-24T12:56:57.482Z,25.96
2023-05-24T12:59:28.898Z,25.89
2023-05-24T13:01:56.675Z,25.55
2023-05-24T13:04:27.701Z,25.40
2023-05-24T13:06:55.165Z,25.10
2023-05-24T13:09:23.876Z,24.72
2023-05-24T13:11:52.694Z,24.44
2023-05-24T13:14:20.557Z,24.50
2023-05-24T13:16:49.884Z,24.41
2023-05-24T13:19:17.797Z,24.28
2023-05-24T13:21:45.338Z,24.21
2023-05-24T13:24:15.966Z,24.00
2023-05-24T13:26:43.932Z,23.93
2023-05-24T13:31:44.408Z,23.85
2023-05-24T13:34:13.430Z,23.75
2023-05-24T13:36:40.887Z,23.52
2023-05-24T13:41:42.290Z,23.35
2023-05-24T13:44:10.331Z,23.37
2023-05-24T13:46:38.472Z,23.41
2023-05-24T13:49:07.018Z,23.63
2023-05-24T13:51:36.224Z,23.75
2023-05-24T13:54:03.927Z,23.79
2023-05-24T13:56:33.259Z,23.86
2023-05-24T13:59:01.780Z,23.92
2023-05-24T14:01:29.591Z,23.68
2023-05-24T14:03:57.074Z,23.34
2023-05-24T14:06:27.384Z,23.48
2023-05-24T14:08:56.296Z,23.24
2023-05-24T14:11:25.005Z,23.31
2023-05-24T14:16:25.214Z,23.31
2023-05-24T14:18:52.558Z,23.21
2023-05-24T14:21:21.919Z,23.17
2023-05-24T14:23:49.833Z,23.14
2023-05-24T14:26:19.216Z,23.11
2023-05-24T14:28:46.794Z,23.20
2023-05-24T14:31:14.232Z,23.18
2023-05-24T14:33:41.476Z,23.24
2023-05-24T14:36:09.536Z,23.31
2023-05-24T14:38:36.893Z,23.22
2023-05-24T14:41:04.155Z,23.17
2023-05-24T14:43:32.814Z,23.18
2023-05-24T14:46:00.164Z,23.07
2023-05-24T14:48:27.441Z,23.08
2023-05-24T14:50:54.847Z,23.28
2023-05-24T14:53:23.730Z,23.21
2023-05-24T14:55:50.994Z,23.06
2023-05-24T14:58:18.877Z,23.00
2023-05-24T15:00:49.719Z,23.17
2023-05-24T15:03:17.090Z,23.20
2023-05-24T15:05:44.664Z,23.24
2023-05-24T15:08:12.220Z,23.28
2023-05-24T15:10:39.759Z,23.20
2023-05-24T15:13:07.108Z,23.38
2023-05-24T15:15:34.448Z,23.17
2023-05-24T15:18:03.389Z,23.25
2023-05-24T15:20:31.220Z,23.17
2023-05-24T15:22:58.801Z,23.08
2023-05-24T15:25:26.116Z,23.17
2023-05-24T15:27:53.413Z,22.91
2023-05-24T15:30:21.252Z,22.96
2023-05-24T15:32:48.918Z,22.96
2023-05-24T15:35:18.199Z,23.03
2023-05-24T15:37:46.245Z,23.00
2023-05-24T15:40:26.582Z,22.86
2023-05-24T15:42:54.056Z,22.74
2023-05-24T15:45:21.527Z,22.82
2023-05-24T15:47:48.993Z,22.84
2023-05-24T15:50:23.623Z,22.69
2023-05-24T15:52:56.492Z,22.56
2023-05-24T15:55:23.875Z,22.59
2023-05-24T15:57:51.358Z,22.53
2023-05-24T16:00:18.785Z,22.55
2023-05-24T16:02:46.160Z,22.56
2023-05-24T16:05:13.473Z,22.74
2023-05-24T16:07:42.178Z,22.72
2023-05-24T16:10:09.922Z,22.60
2023-05-24T16:12:37.167Z,22.53
2023-05-24T16:15:04.970Z,22.56
2023-05-24T16:17:32.282Z,22.41
2023-05-24T16:20:02.001Z,22.19
2023-05-24T16:22:29.447Z,22.18
2023-05-24T16:24:58.159Z,22.02
2023-05-24T16:27:25.451Z,22.07
2023-05-24T16:29:52.763Z,22.02
2023-05-24T16:32:20.177Z,22.05
2023-05-24T16:34:56.862Z,22.00
2023-05-24T16:37:24.936Z,22.07
2023-05-24T16:39:52.236Z,22.01
2023-05-24T16:42:21.524Z,22.08
2023-05-24T16:44:48.779Z,22.00
2023-05-24T16:47:16.300Z,21.76
2023-05-24T16:49:43.520Z,21.59
2023-05-24T16:52:10.794Z,21.53
2023-05-24T16:54:38.025Z,21.38
2023-05-24T16:57:06.922Z,21.40
2023-05-24T16:59:35.632Z,21.36
2023-05-24T17:02:03.026Z,21.26
2023-05-24T17:04:30.347Z,21.15
2023-05-24T17:06:57.623Z,21.12
2023-05-24T17:09:29.421Z,21.01
2023-05-24T17:11:56.844Z,21.05
2023-05-24T17:14:24.329Z,21.02
2023-05-24T17:16:57.099Z,21.02
2023-05-24T17:19:25.422Z,20.94
2023-05-24T17:21:52.907Z,20.87
2023-05-24T17:24:34.844Z,20.78
2023-05-24T17:27:05.111Z,20.64
2023-05-24T17:29:32.543Z,20.64
2023-05-24T17:32:04.231Z,20.56
2023-05-24T17:34:31.863Z,20.51
2023-05-24T17:36:59.217Z,20.43
2023-05-24T17:39:26.594Z,20.34
2023-05-24T17:41:53.998Z,20.22
2023-05-24T17:44:21.635Z,20.09
2023-05-24T17:46:49.220Z,20.08
2023-05-24T17:49:18.148Z,19.95
2023-05-24T17:51:45.674Z,19.86
2023-05-24T17:54:13.068Z,19.83
2023-05-24T17:56:40.480Z,19.77
2023-05-24T17:59:07.825Z,19.64
2023-05-24T18:01:35.132Z,19.58
2023-05-24T18:04:02.582Z,19.50
2023-05-24T18:06:32.061Z,19.47
2023-05-24T18:08:59.457Z,19.40
2023-05-24T18:11:28.742Z,19.31
2023-05-24T18:13:57.153Z,19.17
2023-05-24T18:16:24.567Z,19.14
2023-05-24T18:18:51.980Z,19.05
2023-05-24T18:21:19.268Z,18.99
2023-05-24T18:23:48.099Z,18.88
2023-05-24T18:26:15.346Z,18.79
2023-05-24T18:28:42.750Z,18.79
2023-05-24T18:31:15.012Z,18.59
2023-05-24T18:33:42.954Z,18.49
2023-05-24T18:36:10.389Z,18.40
2023-05-24T18:38:40.188Z,18.43
2023-05-24T18:41:10.277Z,18.31
2023-05-24T18:43:37.934Z,18.27
2023-05-24T18:46:05.387Z,18.28
2023-05-24T18:48:32.953Z,18.21
2023-05-24T18:51:00.275Z,18.03
2023-05-24T18:53:27.540Z,17.97
2023-05-24T18:55:54.814Z,17.96
2023-05-24T18:58:23.536Z,17.89
2023-05-24T19:00:51.129Z,17.78
2023-05-24T19:03:18.430Z,17.78
2023-05-24T19:05:46.243Z,17.63
2023-05-24T19:08:13.900Z,17.56
2023-05-24T19:10:41.580Z,17.53
2023-05-24T19:13:08.839Z,17.62
2023-05-24T19:15:37.704Z,17.59
2023-05-24T19:18:06.078Z,17.46
2023-05-24T19:20:33.592Z,17.39
2023-05-24T19:23:01.142Z,17.38
2023-05-24T19:25:29.050Z,17.34
2023-05-24T19:28:00.025Z,17.30
2023-05-24T19:30:27.900Z,17.30
2023-05-24T19:32:56.676Z,17.21
2023-05-24T19:35:24.008Z,17.24
2023-05-24T19:37:52.428Z,17.18
2023-05-24T19:40:20.043Z,17.18
2023-05-24T19:42:47.342Z,17.10
2023-05-24T19:45:14.812Z,17.06
2023-05-24T19:47:42.133Z,16.99
2023-05-24T19:50:11.712Z,16.88
2023-05-24T19:52:39.114Z,16.83
2023-05-24T19:55:07.975Z,16.70
2023-05-24T19:57:35.233Z,16.60
2023-05-24T20:00:04.672Z,16.52
2023-05-24T20:02:33.394Z,16.49
2023-05-24T20:05:02.096Z,16.44
2023-05-24T20:07:32.109Z,16.47
2023-05-24T20:09:59.409Z,16.36
2023-05-24T20:12:27.837Z,16.31
2023-05-24T20:14:55.094Z,16.20
2023-05-24T20:17:22.603Z,16.24
2023-05-24T20:19:50.299Z,16.18
2023-05-24T20:22:17.714Z,16.14
2023-05-24T20:24:46.513Z,16.20
2023-05-24T20:27:13.703Z,16.15
2023-05-24T20:29:41.273Z,16.18
2023-05-24T20:32:08.860Z,16.05
2023-05-24T20:34:36.392Z,16.05
2023-05-24T20:37:03.875Z,15.94
2023-05-24T20:39:31.847Z,15.96
2023-05-24T20:42:01.125Z,15.89
2023-05-24T20:44:28.462Z,15.77
2023-05-24T20:46:55.936Z,15.80
2023-05-24T20:49:23.329Z,15.77
2023-05-24T20:51:50.750Z,15.71
2023-05-24T20:54:36.951Z,15.69
2023-05-24T20:57:06.579Z,15.59
2023-05-24T20:59:33.848Z,15.52
2023-05-24T21:02:01.273Z,15.50
2023-05-24T21:04:28.581Z,15.53
2023-05-24T21:06:55.965Z,15.56
2023-05-24T21:09:23.476Z,15.43
2023-05-24T21:11:50.803Z,15.40
2023-05-24T21:14:19.666Z,15.43
2023-05-24T21:16:47.011Z,15.36
2023-05-24T21:19:14.376Z,15.40
2023-05-24T21:21:41.589Z,15.47
2023-05-24T21:24:08.925Z,15.50
2023-05-24T21:26:36.563Z,15.47
2023-05-24T21:29:03.885Z,15.45
2023-05-24T21:31:32.481Z,15.45
2023-05-24T21:34:00.001Z,15.54
2023-05-24T21:36:27.359Z,15.63
2023-05-24T21:38:56.966Z,15.66
2023-05-24T21:41:24.357Z,15.70
2023-05-24T21:43:51.688Z,15.57
2023-05-24T21:46:19.102Z,15.57
2023-05-24T21:48:47.824Z,15.54
2023-05-24T21:51:15.827Z,15.54
2023-05-24T21:53:43.312Z,15.59
2023-05-24T21:56:10.621Z,15.54
2023-05-24T21:58:38.566Z,15.57
2023-05-24T22:01:06.178Z,15.49
2023-05-24T22:03:33.478Z,15.50
2023-05-24T22:06:02.409Z,15.46
2023-05-24T22:08:30.597Z,15.43
2023-05-24T22:10:58.145Z,15.40
2023-05-24T22:13:25.580Z,15.39
2023-05-24T22:15:52.964Z,15.32
2023-05-24T22:18:21.610Z,15.31
2023-05-24T22:20:50.972Z,15.28
2023-05-24T22:23:19.953Z,15.15
2023-05-24T22:25:47.380Z,15.21
2023-05-24T22:28:14.709Z,15.14
2023-05-24T22:30:42.153Z,15.16
2023-05-24T22:33:09.437Z,15.08
2023-05-24T22:35:37.493Z,14.95
2023-05-24T22:38:04.859Z,14.99
2023-05-24T22:40:33.850Z,14.92
2023-05-24T22:43:01.265Z,14.87
2023-05-24T22:45:28.667Z,14.85
2023-05-24T22:47:58.672Z,14.81
2023-05-24T22:50:26.226Z,14.74
2023-05-24T22:52:57.036Z,14.67
2023-05-24T22:55:24.582Z,14.66
2023-05-24T22:57:53.534Z,14.57
2023-05-24T23:00:21.898Z,14.60
2023-05-24T23:02:49.369Z,14.56
2023-05-24T23:05:16.904Z,14.51
2023-05-24T23:07:44.225Z,14.44
2023-05-24T23:10:11.510Z,14.46
2023-05-24T23:12:42.394Z,14.43
2023-05-24T23:15:25.139Z,14.36
2023-05-24T23:17:52.989Z,14.43
2023-05-24T23:20:20.616Z,14.39
2023-05-24T23:22:48.538Z,14.46
2023-05-24T23:25:15.855Z,14.41
2023-05-24T23:27:43.194Z,14.32
2023-05-24T23:30:12.922Z,14.33
2023-05-24T23:32:40.578Z,14.36
2023-05-24T23:35:08.746Z,14.30
2023-05-24T23:37:35.981Z,14.28
2023-05-24T23:40:06.636Z,14.25
2023-05-24T23:42:34.286Z,14.22
2023-05-24T23:45:01.686Z,14.22
2023-05-24T23:47:30.541Z,14.16
2023-05-24T23:49:57.846Z,14.13
2023-05-24T23:52:25.230Z,14.08
2023-05-24T23:54:52.738Z,14.01
2023-05-24T23:57:21.768Z,13.91
2023-05-24T23:59:49.199Z,13.86
